WEATHER DATA

TODAY
Time Temp. Dewp. Hum. Wind dir Wind speed Wind gust Bar. 1h Prec. 24h Prec.
00:03 0.1 -0.3 97 270 1.1 3.1 1024.8 0.0000 0.0000
00:13 0.1 -0.3 97 284 0.8 2.8 1024.8 0.0000 0.0000
00:23 0.1 -0.3 97 270 0.8 3.9 1024.5 0.0000 0.0000
00:33 0.1 -0.3 97 231 1.1 3.1 1024.4 0.0000 0.0000
00:43 0.1 -0.3 97 250 1.1 4.2 1024.4 0.0000 0.0000
00:54 0.1 -0.3 97 248 0.8 2.5 1024.2 0.0000 0.0000
01:03 0.1 -0.3 97 209 0.8 3.6 1024.2 0.0000 0.0000
01:13 0.1 -0.3 97 220 0.6 2.2 1024.3 0.0000 0.0000
01:30 0.1 -0.3 97 251 1.1 5.3 1024.2 0.0000 0.0000
01:41 0.1 -0.3 97 246 1.1 4.7 1024 0.0000 0.0000
01:51 0.1 -0.3 97 235 0.8 3.1 1023.7 0.0000 0.0000
02:01 0 -0.4 97 226 1.1 2.5 1023.5 0.0000 0.0000
02:12 0 -0.4 97 216 0.8 3.6 1023.3 0.0000 0.0000
02:21 -0.1 -0.5 97 228 1.1 3.1 1023.1 0.0000 0.0000
02:31 -0.1 -0.5 97 226 1.1 3.6 1022.9 0.0000 0.0000
02:41 -0.1 -0.5 97 239 1.1 3.9 1022.9 0.0000 0.0000
02:52 -0.1 -0.5 97 228 0.8 3.6 1022.9 0.0000 0.0000
03:02 -0.1 -0.5 97 226 1.4 4.4 1022.8 0.0000 0.0000
03:11 -0.1 -0.5 97 239 1.1 3.1 1022.8 0.0000 0.0000
03:22 0 -0.4 97 225 1.1 3.6 1022.6 0.0000 0.0000
03:32 0 -0.4 97 233 0.8 5.3 1022.3 0.0000 0.0000
03:42 -0.1 -0.5 97 227 1.4 3.6 1022.2 0.0000 0.0000
03:52 -0.1 -0.5 97 239 1.1 3.9 1022.2 0.0000 0.0000
04:02 -0.1 -0.6 96 218 1.7 5.6 1022.1 0.0000 0.0000
04:12 -0.2 -0.7 96 237 1.7 6.4 1021.8 0.0000 0.0000
04:22 -0.3 -0.8 96 241 1.9 5.6 1021.7 0.0000 0.0000
04:32 -0.4 -0.9 96 225 1.9 5.3 1021.6 0.0000 0.0000
04:43 -0.5 -1 96 226 1.1 4.4 1021.9 0.0000 0.0000
04:52 -0.5 -1 96 255 1.1 3.9 1021.7 0.0000 0.0000
05:02 -0.5 -1 96 242 1.4 4.4 1021.4 0.0000 0.0000
05:13 -0.5 -1 96 233 1.4 4.4 1021.4 0.0000 0.0000
05:23 -0.5 -1 96 222 0.8 2.5 1021.6 0.0000 0.0000
05:33 -0.5 -1 96 246 1.4 5.6 1021.8 0.0000 0.0000
05:43 -0.5 -1 96 262 1.4 3.9 1021.7 0.0000 0.0000
05:53 -0.5 -1.1 95 261 1.1 3.9 1021.8 0.0000 0.0000
06:02 -0.5 -1.1 95 213 1.4 8.9 1021.3 0.0000 0.0000
06:12 -0.5 -1.1 95 218 1.7 4.7 1021.4 0.0000 0.0000
06:22 -0.5 -1.1 95 207 1.4 4.2 1021.2 0.0000 0.0000
06:32 -0.4 -0.9 96 196 2.2 5 1021 0.0000 0.0000
06:42 -0.3 -0.8 96 207 1.9 4.7 1020.9 0.0000 0.0000
06:53 -0.3 -0.8 96 195 2.2 5 1020.8 0.0000 0.0000
07:03 -0.2 -0.6 97 206 2.8 6.7 1020.6 0.0000 0.0000
07:12 -0.1 -0.5 97 197 1.1 4.7 1020.6 0.0000 0.0000
07:23 0 -0.4 97 188 1.7 3.6 1020.5 0.0000 0.0000
07:33 0 -0.4 97 195 1.4 3.6 1020.5 0.0000 0.0000
07:43 0.1 -0.3 97 189 1.7 3.1 1020.1 0.0000 0.0000
07:53 0.2 -0.2 97 176 1.9 4.4 1020 0.0000 0.0000
08:03 0.3 -0.1 97 197 1.9 5 1019.9 0.0000 0.0000
08:13 0.4 0 97 183 1.7 4.4 1019.8 0.0000 0.0000
08:23 0.5 0.1 97 185 1.7 3.9 1019.9 0.0000 0.0000
08:40 0.7 0.3 97 197 1.7 5.8 1019.7 0.0000 0.0000
08:45 0.9 0.6 98 222 2.5 9.2 1019.6 0.0000 0.0000
08:55 1.2 0.9 98 174 1.1 3.1 1019.4 0.0000 0.0000
09:05 1.3 0.9 97 189 1.1 4.4 1019.2 0.0000 0.0000
09:15 1.5 1.1 97 205 1.1 4.7 1019.1 0.0000 0.0000
09:25 1.5 0.9 96 194 1.1 3.9 1018.9 0.0000 0.0000
09:35 1.6 1 96 174 0.6 2.8 1019 0.0000 0.0000
09:45 1.6 1 96 225 0.8 4.7 1018.8 0.0000 0.0000
09:55 1.7 1.1 96 205 1.4 5.3 1018.8 0.0000 0.0000
10:06 1.8 1.4 97 249 1.7 7.2 1018.8 0.0000 0.0000
10:16 1.9 1.5 97 234 1.9 6.9 1018.6 0.0000 0.0000
10:25 2.1 1.7 97 250 1.4 5.3 1018.5 0.0000 0.0000
10:36 2.3 2 98 260 2.5 7.5 1018.6 0.0000 0.0000
10:46 2.6 2.2 97 276 2.8 6.9 1018.5 0.0000 0.0000
10:56 2.9 2.5 97 286 4.7 8.1 1018.6 0.0000 0.0000
11:06 3.1 2.5 96 296 5.8 10.8 1018.8 0.0000 0.0000
11:16 3.3 2.7 96 290 5 7.8 1018.7 0.0000 0.0000
11:26 3.4 2.7 95 270 2.8 6.1 1018.6 0.1010 0.1000
11:36 3.4 2.7 95 270 2.5 6.9 1018.6 0.1010 0.1000
11:47 3.7 3 95 278 3.6 6.9 1018.4 0.1010 0.1000
11:57 4.1 3.4 95 293 5.3 9.2 1018.5 0.2020 0.2000
12:06 4.4 3.5 94 285 3.6 8.6 1018.5 0.2020 0.2000
12:16 4.5 3.5 93 294 5.3 9.4 1018.4 0.2020 0.2000
12:27 4.6 3.4 92 291 5.3 10.3 1018.2 0.1010 0.2000
12:37 4.3 3.1 92 264 3.1 6.9 1018 0.1010 0.2000
12:47 4.3 3.1 92 270 3.1 6.4 1017.9 0.1010 0.3000
12:57 4.3 3.3 93 274 3.9 8.6 1017.9 0.1010 0.3000
13:07 4.3 3.3 93 265 2.8 6.1 1017.9 0.1010 0.3000
13:17 4.2 3.2 93 256 2.5 7.2 1017.9 0.2020 0.4000
13:27 4.1 3.2 94 244 1.7 4.4 1017.8 0.2020 0.4000
13:38 4.1 3.2 94 238 1.7 5.6 1017.7 0.2020 0.4000
13:47 3.9 3 94 229 1.7 6.4 1017.6 0.2020 0.5000
13:57 3.9 3.2 95 220 1.7 4.7 1017.6 0.2020 0.5000
14:08 3.9 3.2 95 222 1.9 5.3 1017.4 0.3030 0.6000
14:18 3.8 3.1 95 228 1.9 6.4 1017.3 0.2020 0.6000
14:28 3.8 3.2 96 230 1.9 4.7 1017.2 0.3030 0.7000
14:37 3.8 3.2 96 237 1.4 5 1017.2 0.5050 0.9000
14:48 3.7 3.1 96 225 1.4 5.3 1017.2 0.5050 1.0000
14:58 3.6 3 96 218 1.4 3.9 1017.2 0.6060 1.1000
15:08 3.6 3.2 97 210 1.4 3.6 1017.1 0.7070 1.3000
15:18 3.7 3.4 98 217 1.7 4.2 1017.1 0.7070 1.3000
15:28 3.8 3.5 98 218 1.4 4.2 1017.2 0.7070 1.4000
15:38 4 3.7 98 233 1.1 3.9 1017.1 0.5050 1.4000
15:48 4.1 4 99 251 1.9 5.6 1017.1 0.5050 1.5000
15:59 4.2 4.1 99 248 1.7 5.3 1017.1 0.4040 1.5000
16:09 4.3 4 98 275 1.7 5.8 1017 0.3030 1.6000
16:18 4.3 4 98 250 1.9 6.1 1016.8 0.3030 1.6000
16:29 4.4 4.1 98 270 1.7 4.7 1016.9 0.2020 1.6000
16:39 4.4 4.1 98 264 1.4 4.2 1016.9 0.2020 1.6000
16:49 4.4 4.1 98 262 1.4 5.6 1016.9 0.2020 1.7000
16:59 4.4 4.1 98 257 1.4 5.6 1017 0.3030 1.8000
17:09 4.4 4.3 99 255 1.1 3.1 1017.1 0.2020 1.8000
17:19 4.5 4.4 99 270 1.4 4.4 1017 0.2020 1.8000
17:29 4.5 4.4 99 288 1.9 6.4 1016.9 0.2020 1.8000
17:39 4.5 4.4 99 270 1.1 3.9 1017 0.3030 1.9000
17:50 4.6 4.5 99 279 1.7 4.2 1017 0.2020 1.9000
17:59 4.6 4.5 99 270 1.1 2.5 1017.3 0.4040 2.2000
18:09 4.5 4.4 99 277 1.4 3.9 1017.5 0.9090 2.7000
18:20 4.4 4.3 99 255 0.8 3.1 1017.7 1.2120 3.0000

DAY STATISTIC

2022-01-27
TEMPERATURE
AVERAGE
1.8
HIGH
4.6
12:27
LOW
-0.5
04:43
PRESSURE
AVERAGE
1019.9
HIGH
1024.8
00:03
LOW
1016.8
16:18
DEWPOINT
AVERAGE
1.4
HIGH
4.5
17:50
LOW
-1.1
05:53
HUMIDITY
AVERAGE
97
HIGH
99
15:48
LOW
92
12:27
WIND SPEED
AVERAGE
1.8
HIGH
5.8
11:06
WIND GUST
AVERAGE
5.0
HIGH
10.8
11:06
WIND DIRECTION
PREVAILING
SW
45.9%
N
0.0
NE
0.0
E
0.0
SE
0.0
S
13.8
SW
45.9
W
37.6
NW
2.8
PRECIPITATION
RAIN HOUR
1.2
RAIN DAY
3.0
TEMPERATURE (°C)
LOW
-0.5
HIGH
4.6
AVERAGE
1.8
PRESSURE (hpa)
LOW
1016.8
HIGH
1024.8
AVERAGE
1019.9
DEVICE